Terminal Aerodrome Forecast
Issued by NWS

Home | Current Version | Previous Version | Text Only | Print | Product List | Glossary On
Versions: 1 2 3 4 5 6 7 8 9 10 11 12 13 14 15
000
FTUS45 KCYS 181739
TAFRWL
TAF
KRWL 181739Z 1818/1918 23035G50KT P6SM VCSH BKN050 OVC100
     FM190100 28010KT P6SM OVC050
     FM190300 36010KT 2SM -SN BR SCT009 OVC015
     FM190500 02010KT 1SM -SN BR OVC008=

USA.gov is the U.S. government's official web portal to all federal, state and local government web resources and services.